createdAt,value
2022-12-17T00:00:08.515Z,0.00
2022-12-17T00:01:08.444Z,0.00
2022-12-17T00:02:08.413Z,0.00
2022-12-17T00:03:08.527Z,0.00
2022-12-17T00:04:08.507Z,0.00
2022-12-17T00:05:08.385Z,0.00
2022-12-17T00:06:08.388Z,0.00
2022-12-17T00:07:08.352Z,0.00
2022-12-17T00:08:08.352Z,0.00
2022-12-17T00:09:08.322Z,0.00
2022-12-17T00:10:08.316Z,0.00
2022-12-17T00:11:08.321Z,0.00
2022-12-17T00:12:08.282Z,0.00
2022-12-17T00:13:08.271Z,0.00
2022-12-17T00:14:08.271Z,0.00
2022-12-17T00:15:08.251Z,0.00
2022-12-17T00:16:08.344Z,0.00
2022-12-17T00:17:08.228Z,0.00
2022-12-17T00:18:08.221Z,0.00
2022-12-17T00:19:08.200Z,0.00
2022-12-17T00:20:08.201Z,0.00
2022-12-17T00:21:08.194Z,0.00
2022-12-17T00:22:08.173Z,0.00
2022-12-17T00:23:08.153Z,0.00
2022-12-17T00:24:08.143Z,0.00
2022-12-17T00:25:08.132Z,0.00
2022-12-17T00:26:08.131Z,0.00
2022-12-17T00:27:08.102Z,0.00
2022-12-17T00:28:08.097Z,0.00
2022-12-17T00:29:08.078Z,0.00
2022-12-17T00:30:08.085Z,0.00
2022-12-17T00:31:08.097Z,0.00
2022-12-17T00:32:08.051Z,0.00
2022-12-17T00:33:08.030Z,0.00
2022-12-17T00:34:08.028Z,0.00
2022-12-17T00:35:08.003Z,0.00
2022-12-17T00:36:08.001Z,0.00
2022-12-17T00:37:07.981Z,0.00
2022-12-17T00:38:07.960Z,0.00
2022-12-17T00:39:07.951Z,0.00
2022-12-17T00:40:07.931Z,0.00
2022-12-17T00:41:07.930Z,0.00
2022-12-17T00:42:07.931Z,0.00
2022-12-17T00:43:07.900Z,0.00
2022-12-17T00:44:07.900Z,0.00
2022-12-17T00:45:07.871Z,0.00
2022-12-17T00:46:07.863Z,0.00
2022-12-17T00:47:07.958Z,0.00
2022-12-17T00:48:07.829Z,0.00
2022-12-17T00:49:07.829Z,0.00
2022-12-17T00:50:07.809Z,0.00
2022-12-17T00:51:07.821Z,0.00
2022-12-17T00:52:07.781Z,0.00
2022-12-17T00:53:07.772Z,0.00
2022-12-17T00:54:07.765Z,0.00
2022-12-17T00:55:07.751Z,0.00
2022-12-17T00:56:07.760Z,0.00
2022-12-17T00:57:07.741Z,0.00
2022-12-17T00:58:07.721Z,0.00
2022-12-17T00:59:07.691Z,0.00
2022-12-17T01:00:07.678Z,0.00
2022-12-17T01:01:07.697Z,0.00
2022-12-17T01:02:07.743Z,0.00
2022-12-17T01:03:07.696Z,0.00
2022-12-17T01:04:07.633Z,0.00
2022-12-17T01:05:07.621Z,0.00
2022-12-17T01:06:07.600Z,0.00
2022-12-17T01:07:07.600Z,0.00
2022-12-17T01:08:07.590Z,0.00
2022-12-17T01:09:07.569Z,0.00
2022-12-17T01:10:07.560Z,0.00
2022-12-17T01:11:07.549Z,0.00
2022-12-17T01:12:07.530Z,0.00
2022-12-17T01:13:07.521Z,0.00
2022-12-17T01:14:07.510Z,0.00
2022-12-17T01:15:07.500Z,0.00
2022-12-17T01:16:07.529Z,0.00
2022-12-17T01:17:07.480Z,0.00
2022-12-17T01:18:07.449Z,0.00
2022-12-17T01:19:07.439Z,0.00
2022-12-17T01:20:07.434Z,0.00
2022-12-17T01:21:07.421Z,0.00
2022-12-17T01:22:07.415Z,0.00
2022-12-17T01:23:07.393Z,0.00
2022-12-17T01:24:07.369Z,0.00
2022-12-17T01:25:07.359Z,0.00
2022-12-17T01:26:07.372Z,0.00
2022-12-17T01:27:07.340Z,0.00
2022-12-17T01:28:07.347Z,0.00
2022-12-17T01:29:07.332Z,0.00
2022-12-17T01:30:07.298Z,0.00
2022-12-17T01:31:07.385Z,0.00
2022-12-17T01:32:07.335Z,0.00
2022-12-17T01:33:07.250Z,0.00
2022-12-17T01:34:07.278Z,0.00
2022-12-17T01:35:07.249Z,0.00
2022-12-17T01:36:07.228Z,0.00
2022-12-17T01:37:07.207Z,0.00
2022-12-17T01:38:07.191Z,0.00
2022-12-17T01:39:07.190Z,0.00
2022-12-17T01:40:07.159Z,0.00
2022-12-17T01:41:07.169Z,0.00
2022-12-17T01:42:07.138Z,0.00
2022-12-17T01:43:07.127Z,0.00
2022-12-17T01:44:07.122Z,0.00
2022-12-17T01:45:07.100Z,0.00
2022-12-17T01:46:07.151Z,0.00
2022-12-17T01:47:07.081Z,0.00
2022-12-17T01:48:07.058Z,0.00
2022-12-17T01:49:07.069Z,0.00
2022-12-17T01:50:07.028Z,0.00
2022-12-17T01:51:07.037Z,0.00
2022-12-17T01:52:07.009Z,0.00
2022-12-17T01:53:07.008Z,0.00
2022-12-17T01:54:07.008Z,0.00
2022-12-17T01:55:06.969Z,0.00
2022-12-17T01:56:07.018Z,0.00
2022-12-17T01:57:06.955Z,0.00
2022-12-17T01:58:06.929Z,0.00
2022-12-17T01:59:06.947Z,0.00
2022-12-17T02:00:06.907Z,0.00
2022-12-17T02:01:06.979Z,0.00
2022-12-17T02:02:07.135Z,0.00
2022-12-17T02:03:06.916Z,0.00
2022-12-17T02:04:06.868Z,0.00
2022-12-17T02:05:06.859Z,0.00
2022-12-17T02:06:06.835Z,0.00
2022-12-17T02:07:06.856Z,0.00
2022-12-17T02:08:06.819Z,0.00
2022-12-17T02:09:06.800Z,0.00
2022-12-17T02:10:06.786Z,0.00
2022-12-17T02:11:06.789Z,0.00
2022-12-17T02:12:06.747Z,0.00
2022-12-17T02:13:06.776Z,0.00
2022-12-17T02:14:06.750Z,0.00
2022-12-17T02:15:06.740Z,0.00
2022-12-17T02:16:06.734Z,0.00
2022-12-17T02:17:06.688Z,0.00
2022-12-17T02:18:06.687Z,0.00
2022-12-17T02:19:06.685Z,0.00
2022-12-17T02:20:06.666Z,0.00
2022-12-17T02:21:06.658Z,0.00
2022-12-17T02:22:06.637Z,0.00
2022-12-17T02:23:06.656Z,0.00
2022-12-17T02:24:06.616Z,0.00
2022-12-17T02:25:06.606Z,0.00
2022-12-17T02:26:06.579Z,0.00
2022-12-17T02:27:06.577Z,0.00
2022-12-17T02:28:06.559Z,0.00
2022-12-17T02:29:06.546Z,0.00
2022-12-17T02:30:06.538Z,0.00
2022-12-17T02:31:06.535Z,0.00
2022-12-17T02:32:06.626Z,0.00
2022-12-17T02:33:06.506Z,0.00
2022-12-17T02:34:06.497Z,0.00
2022-12-17T02:35:06.472Z,0.00
2022-12-17T02:36:06.457Z,0.00
2022-12-17T02:37:06.469Z,0.00
2022-12-17T02:38:06.439Z,0.00
2022-12-17T02:39:06.437Z,0.00
2022-12-17T02:40:06.416Z,0.00
2022-12-17T02:41:06.406Z,0.00
2022-12-17T02:42:06.497Z,0.00
2022-12-17T02:43:06.366Z,0.00
2022-12-17T02:44:06.355Z,0.00
2022-12-17T02:45:06.345Z,0.00
2022-12-17T02:46:06.371Z,0.00
2022-12-17T02:47:06.327Z,0.00
2022-12-17T02:48:06.320Z,0.00
2022-12-17T02:49:06.303Z,0.00
2022-12-17T02:50:06.313Z,0.00
2022-12-17T02:51:06.291Z,0.00
2022-12-17T02:52:06.287Z,0.00
2022-12-17T02:53:06.265Z,0.00
2022-12-17T02:54:06.265Z,0.00
2022-12-17T02:55:06.225Z,0.00
2022-12-17T02:56:06.227Z,0.00
2022-12-17T02:57:06.216Z,0.00
2022-12-17T02:58:06.209Z,0.00
2022-12-17T02:59:06.185Z,0.00
2022-12-17T03:00:06.165Z,0.00
2022-12-17T03:01:06.242Z,0.00
2022-12-17T03:02:06.358Z,0.00
2022-12-17T03:03:06.180Z,0.00
2022-12-17T03:04:06.133Z,0.00
2022-12-17T03:05:27.544Z,0.00
2022-12-17T03:06:07.106Z,0.00
2022-12-17T03:07:06.176Z,0.00
2022-12-17T03:08:06.067Z,0.00
2022-12-17T03:09:06.053Z,0.00
2022-12-17T03:10:06.054Z,0.00
2022-12-17T03:11:06.050Z,0.00
2022-12-17T03:12:06.043Z,0.00
2022-12-17T03:13:06.025Z,0.00
2022-12-17T03:14:06.001Z,0.00
2022-12-17T03:15:05.997Z,0.00
2022-12-17T03:16:05.983Z,0.00
2022-12-17T03:17:06.034Z,0.00
2022-12-17T03:18:05.948Z,0.00
2022-12-17T03:19:05.943Z,0.00
2022-12-17T03:20:05.936Z,0.00
2022-12-17T03:21:05.924Z,0.00
2022-12-17T03:22:05.924Z,0.00
2022-12-17T03:23:05.895Z,0.00
2022-12-17T03:24:05.898Z,0.00
2022-12-17T03:25:05.885Z,0.00
2022-12-17T03:26:05.878Z,0.00
2022-12-17T03:27:05.886Z,0.00
2022-12-17T03:28:05.847Z,0.00
2022-12-17T03:29:05.833Z,0.00
2022-12-17T03:30:05.814Z,0.00
2022-12-17T03:31:05.826Z,0.00
2022-12-17T03:32:05.781Z,0.00
2022-12-17T03:33:05.783Z,0.00
2022-12-17T03:34:05.774Z,0.00
2022-12-17T03:35:05.754Z,0.00
2022-12-17T03:36:05.779Z,0.00
2022-12-17T03:37:05.724Z,0.00
2022-12-17T03:38:05.731Z,0.00
2022-12-17T03:39:05.693Z,0.00
2022-12-17T03:40:05.685Z,0.00
2022-12-17T03:41:05.672Z,0.00
2022-12-17T03:42:05.653Z,0.00
2022-12-17T03:43:05.664Z,0.00
2022-12-17T03:44:05.633Z,0.00
2022-12-17T03:45:05.633Z,0.00
2022-12-17T03:46:05.644Z,0.00
2022-12-17T03:47:05.593Z,0.00
2022-12-17T03:48:05.592Z,0.00
2022-12-17T03:49:05.581Z,0.00
2022-12-17T03:50:05.572Z,0.00
2022-12-17T04:03:41.972Z,0.00
2022-12-17T04:04:41.925Z,0.00
2022-12-17T04:05:41.904Z,0.00
2022-12-17T04:06:41.888Z,0.00
2022-12-17T04:07:41.892Z,0.00
2022-12-17T04:08:41.895Z,0.00
2022-12-17T04:09:41.863Z,0.00
2022-12-17T04:10:41.862Z,0.00
2022-12-17T04:11:41.868Z,0.00
2022-12-17T04:12:41.823Z,0.00
2022-12-17T04:13:41.832Z,0.00
2022-12-17T04:14:41.802Z,0.00
2022-12-17T04:15:41.833Z,0.00
2022-12-17T04:16:49.285Z,0.00
2022-12-17T04:17:41.758Z,0.00
2022-12-17T04:18:41.755Z,0.00
2022-12-17T04:19:41.747Z,0.00
2022-12-17T04:20:41.757Z,0.00
2022-12-17T04:21:41.736Z,0.00
2022-12-17T04:22:41.706Z,0.00
2022-12-17T04:23:41.745Z,0.00
2022-12-17T04:24:41.683Z,0.00
2022-12-17T04:25:41.666Z,0.00
2022-12-17T04:26:41.667Z,0.00
2022-12-17T04:27:41.657Z,0.00
2022-12-17T04:28:41.636Z,0.00
2022-12-17T04:29:41.647Z,0.00
2022-12-17T04:30:41.664Z,0.00
2022-12-17T04:31:41.615Z,0.00
2022-12-17T04:32:41.586Z,0.00
2022-12-17T04:33:41.575Z,0.00
2022-12-17T04:34:41.582Z,0.00
2022-12-17T04:35:41.553Z,0.00
2022-12-17T04:36:41.586Z,0.00
2022-12-17T04:37:41.537Z,0.00
2022-12-17T04:38:41.504Z,0.00
2022-12-17T04:39:41.545Z,0.00
2022-12-17T04:40:41.486Z,0.00
2022-12-17T04:41:41.495Z,0.00
2022-12-17T04:42:41.476Z,0.00
2022-12-17T04:43:41.454Z,0.00
2022-12-17T04:44:41.471Z,0.00
2022-12-17T04:45:41.443Z,0.00
2022-12-17T04:46:41.479Z,0.00
2022-12-17T04:47:41.425Z,0.00
2022-12-17T04:48:41.395Z,0.00
2022-12-17T04:49:41.404Z,0.00
2022-12-17T04:50:41.386Z,0.00
2022-12-17T04:51:41.358Z,0.00
2022-12-17T04:52:41.367Z,0.00
2022-12-17T04:53:41.346Z,0.00
2022-12-17T04:54:41.344Z,0.00
2022-12-17T04:55:41.318Z,0.00
2022-12-17T04:56:41.294Z,0.00
2022-12-17T04:57:41.305Z,0.00
2022-12-17T04:58:41.284Z,0.00
2022-12-17T04:59:41.283Z,0.00
2022-12-17T05:00:41.270Z,0.00
2022-12-17T05:01:41.344Z,0.00
2022-12-17T05:02:42.987Z,0.00
2022-12-17T05:03:41.601Z,0.00
2022-12-17T05:04:41.238Z,0.00
2022-12-17T05:05:41.218Z,0.00
2022-12-17T05:06:41.174Z,0.00
2022-12-17T05:07:41.165Z,0.00
2022-12-17T05:08:41.660Z,0.00
2022-12-17T05:09:41.168Z,0.00
2022-12-17T05:10:41.149Z,0.00
2022-12-17T05:11:41.143Z,0.00
2022-12-17T05:12:41.103Z,0.00
2022-12-17T05:13:41.102Z,0.00
2022-12-17T05:14:41.112Z,0.00
2022-12-17T05:15:41.106Z,0.00
2022-12-17T05:16:41.052Z,0.00
2022-12-17T05:17:41.083Z,0.00
2022-12-17T05:18:41.031Z,0.00
2022-12-17T05:19:41.037Z,0.00
2022-12-17T05:20:41.031Z,0.00
2022-12-17T05:21:41.046Z,0.00
2022-12-17T05:22:40.991Z,0.00
2022-12-17T05:23:40.985Z,0.00
2022-12-17T05:24:40.963Z,0.00
2022-12-17T05:25:41.012Z,0.00
2022-12-17T05:26:40.952Z,0.00
2022-12-17T05:27:40.934Z,0.00
2022-12-17T05:28:40.955Z,0.00
2022-12-17T05:29:40.912Z,0.00
2022-12-17T05:30:40.913Z,0.00
2022-12-17T05:31:40.956Z,0.00
2022-12-17T05:32:41.007Z,0.00
2022-12-17T05:33:40.863Z,0.00
2022-12-17T05:34:40.860Z,0.00
2022-12-17T05:35:40.846Z,0.00
2022-12-17T05:36:40.836Z,0.00
2022-12-17T05:37:40.833Z,0.00
2022-12-17T05:38:40.795Z,0.00
2022-12-17T05:39:40.803Z,0.00
2022-12-17T05:40:40.811Z,0.00
2022-12-17T05:41:40.794Z,0.00
2022-12-17T05:42:40.752Z,0.00
2022-12-17T05:43:40.765Z,0.00
2022-12-17T05:44:40.731Z,0.00
2022-12-17T05:45:40.743Z,0.00
2022-12-17T05:46:40.798Z,0.00
2022-12-17T05:47:40.713Z,0.00
2022-12-17T05:48:40.692Z,0.00
2022-12-17T05:49:40.691Z,0.00
2022-12-17T05:50:40.680Z,0.00
2022-12-17T05:51:40.650Z,0.00
2022-12-17T05:52:40.632Z,0.00
2022-12-17T05:53:40.623Z,0.00
2022-12-17T05:54:40.633Z,0.00
2022-12-17T05:55:40.611Z,0.00
2022-12-17T05:56:40.612Z,0.00
2022-12-17T05:57:40.571Z,0.00
2022-12-17T05:58:40.574Z,0.00
2022-12-17T05:59:40.560Z,0.00
2022-12-17T06:00:40.551Z,0.00
2022-12-17T06:01:40.640Z,0.00
2022-12-17T06:02:40.645Z,0.00
2022-12-17T06:03:41.162Z,0.00
2022-12-17T06:04:40.511Z,0.00
2022-12-17T06:05:40.494Z,0.00
2022-12-17T06:06:40.490Z,0.00
2022-12-17T06:07:40.459Z,0.00
2022-12-17T06:08:40.468Z,0.00
2022-12-17T06:09:40.489Z,0.00
2022-12-17T06:10:40.468Z,0.00
2022-12-17T06:11:40.434Z,0.00
2022-12-17T06:12:40.440Z,0.00
2022-12-17T06:13:40.404Z,0.00
2022-12-17T06:14:40.415Z,0.00
2022-12-17T06:15:40.380Z,0.00
2022-12-17T06:16:40.391Z,0.00
2022-12-17T06:17:40.361Z,0.00
2022-12-17T06:18:40.331Z,0.00
2022-12-17T06:19:40.324Z,0.00
2022-12-17T06:20:40.328Z,0.00
2022-12-17T06:21:40.314Z,0.00
2022-12-17T06:22:40.297Z,0.00
2022-12-17T06:23:40.264Z,0.00
2022-12-17T06:24:45.725Z,0.00
2022-12-17T06:25:41.283Z,0.00
2022-12-17T06:26:40.244Z,0.00
2022-12-17T06:27:40.270Z,0.00
2022-12-17T06:28:40.225Z,0.00
2022-12-17T06:29:40.205Z,0.00
2022-12-17T06:30:40.217Z,0.00
2022-12-17T06:31:40.240Z,0.00
2022-12-17T06:32:40.180Z,0.00
2022-12-17T06:33:40.164Z,0.00
2022-12-17T06:34:40.159Z,0.00
2022-12-17T06:35:40.150Z,0.00
2022-12-17T06:36:40.151Z,0.00
2022-12-17T06:37:40.110Z,0.00
2022-12-17T06:38:40.119Z,0.00
2022-12-17T06:39:40.103Z,0.00
2022-12-17T06:40:40.100Z,0.00
2022-12-17T06:41:40.087Z,0.00
2022-12-17T06:42:40.069Z,0.00
2022-12-17T06:43:40.049Z,0.00
2022-12-17T06:44:40.058Z,0.00
2022-12-17T06:45:40.071Z,0.00
2022-12-17T06:46:40.036Z,0.00
2022-12-17T06:47:40.002Z,0.00
2022-12-17T06:48:39.991Z,0.00
2022-12-17T06:49:39.959Z,0.00
2022-12-17T06:50:39.991Z,0.00
2022-12-17T06:51:39.967Z,0.00
2022-12-17T06:52:39.931Z,0.00
2022-12-17T06:53:39.927Z,0.00
2022-12-17T06:54:39.918Z,0.00
2022-12-17T06:55:39.904Z,0.00
2022-12-17T06:56:39.890Z,0.00
2022-12-17T06:57:41.807Z,0.00
2022-12-17T06:58:39.859Z,0.00
2022-12-17T06:59:39.881Z,0.00
2022-12-17T07:00:39.891Z,0.00
2022-12-17T07:01:40.007Z,0.00
2022-12-17T07:02:39.909Z,0.00
2022-12-17T07:03:39.992Z,0.00
2022-12-17T07:04:39.817Z,0.00
2022-12-17T07:05:39.788Z,0.00
2022-12-17T07:06:39.816Z,0.00
2022-12-17T07:07:39.765Z,0.00
2022-12-17T07:08:39.746Z,0.00
2022-12-17T07:09:39.740Z,0.00
2022-12-17T07:10:39.720Z,0.00
2022-12-17T07:11:39.752Z,5.62
2022-12-17T07:12:39.702Z,5.62
2022-12-17T07:13:40.175Z,5.62
2022-12-17T07:14:39.686Z,5.62
2022-12-17T07:15:39.672Z,5.62
2022-12-17T07:16:39.777Z,5.62
2022-12-17T07:17:39.638Z,5.62
2022-12-17T07:18:39.698Z,5.62
2022-12-17T07:19:39.607Z,5.62
2022-12-17T07:20:39.613Z,5.62
2022-12-17T07:21:39.577Z,5.62
2022-12-17T07:22:39.595Z,5.62
2022-12-17T07:23:39.814Z,11.25
2022-12-17T07:24:39.551Z,11.25
2022-12-17T07:25:45.684Z,11.25
2022-12-17T07:26:40.555Z,11.25
2022-12-17T07:27:39.521Z,11.25
2022-12-17T07:28:39.511Z,11.25
2022-12-17T07:29:39.513Z,11.25
2022-12-17T07:30:39.506Z,11.25
2022-12-17T07:31:39.524Z,11.25
2022-12-17T07:32:39.469Z,11.25
2022-12-17T07:33:39.574Z,11.25
2022-12-17T07:34:39.436Z,16.88
2022-12-17T07:35:39.491Z,16.88
2022-12-17T07:36:39.435Z,16.88
2022-12-17T07:37:39.449Z,16.88
2022-12-17T07:38:39.388Z,16.88
2022-12-17T07:39:39.420Z,16.88
2022-12-17T07:40:39.399Z,16.88
2022-12-17T07:41:39.379Z,16.88
2022-12-17T07:42:39.365Z,16.88
2022-12-17T07:43:39.661Z,22.50
2022-12-17T07:44:39.346Z,22.50
2022-12-17T07:45:39.416Z,22.50
2022-12-17T07:46:39.309Z,22.50
2022-12-17T07:47:39.268Z,22.50
2022-12-17T07:48:39.270Z,22.50
2022-12-17T07:49:39.337Z,22.50
2022-12-17T07:50:39.238Z,22.50
2022-12-17T07:51:39.331Z,28.12
2022-12-17T07:52:39.249Z,28.12
2022-12-17T07:53:39.410Z,28.12
2022-12-17T07:54:40.011Z,28.12
2022-12-17T07:55:39.167Z,28.12
2022-12-17T07:56:39.191Z,28.12
2022-12-17T07:57:39.157Z,28.12
2022-12-17T07:58:39.148Z,28.12
2022-12-17T07:59:39.183Z,28.12
2022-12-17T08:00:40.048Z,33.75
2022-12-17T08:01:39.234Z,33.75
2022-12-17T08:02:39.305Z,33.75
2022-12-17T08:03:39.613Z,33.75
2022-12-17T08:04:39.098Z,33.75
2022-12-17T08:05:39.061Z,33.75
2022-12-17T08:06:39.097Z,33.75
2022-12-17T08:07:39.049Z,39.38
2022-12-17T08:08:39.056Z,39.38
2022-12-17T08:09:39.055Z,39.38
2022-12-17T08:10:39.006Z,39.38
2022-12-17T08:11:39.026Z,39.38
2022-12-17T08:12:38.987Z,39.38
2022-12-17T08:13:39.378Z,39.38
2022-12-17T08:14:38.975Z,45.00
2022-12-17T08:15:38.956Z,45.00
2022-12-17T08:16:39.021Z,45.00
2022-12-17T08:17:38.928Z,45.00
2022-12-17T08:18:38.955Z,45.00
2022-12-17T08:19:38.915Z,45.00
2022-12-17T08:20:38.926Z,45.00
2022-12-17T08:21:38.918Z,50.62
2022-12-17T08:22:38.935Z,50.62
2022-12-17T08:23:39.319Z,50.62
2022-12-17T08:24:38.865Z,50.62
2022-12-17T08:25:38.857Z,50.62
2022-12-17T08:26:42.028Z,50.62
2022-12-17T08:27:39.826Z,56.25
2022-12-17T08:28:50.622Z,56.25
2022-12-17T08:29:39.824Z,56.25
2022-12-17T08:30:38.884Z,56.25
2022-12-17T08:31:38.862Z,56.25
2022-12-17T08:32:38.782Z,56.25
2022-12-17T08:33:39.022Z,61.88
2022-12-17T08:34:38.743Z,61.88
2022-12-17T08:35:38.778Z,61.88
2022-12-17T08:36:38.737Z,61.88
2022-12-17T08:37:38.706Z,67.50
2022-12-17T08:38:38.703Z,67.50
2022-12-17T08:39:38.681Z,67.50
2022-12-17T08:40:38.744Z,73.12
2022-12-17T08:41:38.656Z,73.12
2022-12-17T08:42:38.672Z,73.12
2022-12-17T08:43:39.063Z,73.12
2022-12-17T08:44:38.636Z,73.12
2022-12-17T08:45:38.638Z,78.75
2022-12-17T08:46:38.591Z,78.75
2022-12-17T08:47:38.653Z,84.38
2022-12-17T08:48:38.643Z,84.38
2022-12-17T08:49:38.571Z,90.00
2022-12-17T08:50:38.572Z,90.00
2022-12-17T08:51:38.530Z,95.62
2022-12-17T08:52:38.542Z,95.62
2022-12-17T08:53:38.919Z,101.25
2022-12-17T08:54:38.516Z,101.25
2022-12-17T08:55:38.499Z,106.88
2022-12-17T08:56:38.483Z,106.88
2022-12-17T08:57:38.494Z,112.50
2022-12-17T08:58:38.452Z,118.12
2022-12-17T08:59:38.450Z,157.50
2022-12-17T09:00:38.424Z,196.88
2022-12-17T09:01:38.480Z,281.25
2022-12-17T09:02:47.218Z,399.38
2022-12-17T09:03:45.987Z,354.38
2022-12-17T09:04:46.922Z,213.75
2022-12-17T09:05:38.401Z,202.50
2022-12-17T09:06:39.392Z,275.62
2022-12-17T09:07:38.326Z,219.38
2022-12-17T09:08:38.315Z,230.62
2022-12-17T09:09:38.318Z,202.50
2022-12-17T09:10:38.325Z,185.62
2022-12-17T09:11:45.821Z,230.62
2022-12-17T09:12:48.008Z,196.88
2022-12-17T09:13:38.675Z,174.38
2022-12-17T09:14:38.247Z,174.38
2022-12-17T09:15:46.862Z,191.25
2022-12-17T09:16:38.277Z,196.88
2022-12-17T09:17:38.220Z,191.25
2022-12-17T09:18:38.367Z,196.88
2022-12-17T09:19:38.193Z,202.50
2022-12-17T09:20:38.272Z,241.88
2022-12-17T09:21:38.188Z,258.75
2022-12-17T09:22:38.194Z,225.00
2022-12-17T09:23:38.674Z,213.75
2022-12-17T09:24:38.139Z,236.25
2022-12-17T09:25:38.117Z,275.62
2022-12-17T09:26:38.119Z,315.00
2022-12-17T09:27:38.133Z,450.00
2022-12-17T09:28:38.108Z,506.25
2022-12-17T09:29:38.111Z,410.62
2022-12-17T09:30:38.089Z,309.38
2022-12-17T09:31:38.074Z,275.62
2022-12-17T09:32:38.087Z,410.62
2022-12-17T09:33:38.522Z,562.50
2022-12-17T09:34:38.039Z,641.25
2022-12-17T09:35:38.088Z,613.12
2022-12-17T09:36:37.984Z,579.38
2022-12-17T09:37:37.981Z,675.00
2022-12-17T09:38:38.003Z,714.38
2022-12-17T09:39:37.939Z,731.25
2022-12-17T09:40:37.949Z,725.62
2022-12-17T09:41:37.919Z,731.25
2022-12-17T09:42:37.909Z,742.50
2022-12-17T09:43:38.251Z,748.12
2022-12-17T09:44:37.919Z,832.50
2022-12-17T09:45:37.879Z,871.88
2022-12-17T09:46:37.912Z,894.38
2022-12-17T09:47:37.860Z,933.75
2022-12-17T10:03:52.531Z,669.38
2022-12-17T10:04:44.407Z,675.00
2022-12-17T10:05:44.397Z,585.00
2022-12-17T10:06:44.389Z,483.75
2022-12-17T10:07:44.358Z,765.00
2022-12-17T10:08:44.397Z,1023.75
2022-12-17T10:09:44.339Z,753.75
2022-12-17T10:10:44.331Z,393.75
2022-12-17T10:11:44.602Z,315.00
2022-12-17T10:12:44.300Z,270.00
2022-12-17T10:13:44.298Z,247.50
2022-12-17T10:14:44.301Z,326.25
2022-12-17T10:15:44.335Z,343.12
2022-12-17T10:16:44.247Z,450.00
2022-12-17T10:17:52.855Z,646.88
2022-12-17T10:18:44.236Z,731.25
2022-12-17T10:19:44.217Z,523.12
2022-12-17T10:20:44.201Z,354.38
2022-12-17T10:21:44.176Z,393.75
2022-12-17T10:22:44.189Z,393.75
2022-12-17T10:23:44.166Z,466.88
2022-12-17T10:24:44.172Z,483.75
2022-12-17T10:25:44.136Z,461.25
2022-12-17T10:26:44.146Z,421.88
2022-12-17T10:27:44.107Z,348.75
2022-12-17T10:28:44.102Z,298.12
2022-12-17T10:29:48.181Z,309.38
2022-12-17T10:30:44.132Z,331.88
2022-12-17T10:31:44.057Z,326.25
2022-12-17T10:32:44.082Z,309.38
2022-12-17T10:33:44.039Z,298.12
2022-12-17T10:34:44.028Z,303.75
2022-12-17T10:35:44.039Z,298.12
2022-12-17T10:36:43.996Z,275.62
2022-12-17T10:37:43.987Z,281.25
2022-12-17T10:38:43.998Z,247.50
2022-12-17T10:39:43.966Z,225.00
2022-12-17T10:40:43.967Z,213.75
2022-12-17T10:41:43.926Z,247.50
2022-12-17T10:42:43.917Z,315.00
2022-12-17T10:43:43.900Z,331.88
2022-12-17T10:44:43.907Z,309.38
2022-12-17T10:45:43.892Z,286.88
2022-12-17T10:46:43.919Z,258.75
2022-12-17T10:47:43.847Z,264.38
2022-12-17T10:48:43.839Z,270.00
2022-12-17T10:49:43.833Z,241.88
2022-12-17T10:50:44.285Z,208.12
2022-12-17T10:51:43.789Z,213.75
2022-12-17T10:52:43.789Z,230.62
2022-12-17T10:53:43.770Z,247.50
2022-12-17T10:54:48.762Z,281.25
2022-12-17T10:55:44.737Z,348.75
2022-12-17T10:56:43.739Z,360.00
2022-12-17T10:57:43.738Z,320.62
2022-12-17T10:58:43.710Z,337.50
2022-12-17T10:59:43.730Z,343.12
2022-12-17T11:00:49.435Z,348.75
2022-12-17T11:01:44.788Z,337.50
2022-12-17T11:02:43.837Z,331.88
2022-12-17T11:03:43.701Z,393.75
2022-12-17T11:04:43.657Z,393.75
2022-12-17T11:05:43.709Z,376.88
2022-12-17T11:06:44.170Z,360.00
2022-12-17T11:07:43.597Z,331.88
2022-12-17T11:08:43.588Z,303.75
2022-12-17T11:09:43.582Z,281.25
2022-12-17T11:10:43.610Z,281.25
2022-12-17T11:11:43.552Z,298.12
2022-12-17T11:12:43.543Z,264.38
2022-12-17T11:13:43.508Z,247.50
2022-12-17T11:14:43.525Z,258.75
2022-12-17T11:15:43.541Z,281.25
2022-12-17T11:16:43.517Z,303.75
2022-12-17T11:17:43.468Z,326.25
2022-12-17T11:18:43.463Z,348.75
2022-12-17T11:19:43.468Z,320.62
2022-12-17T11:20:43.446Z,298.12
2022-12-17T11:21:43.423Z,281.25
2022-12-17T11:22:43.410Z,270.00
2022-12-17T11:23:43.399Z,286.88
2022-12-17T11:24:43.389Z,281.25
2022-12-17T11:25:43.397Z,281.25
2022-12-17T11:26:43.362Z,286.88
2022-12-17T11:27:43.338Z,292.50
2022-12-17T11:28:43.340Z,298.12
2022-12-17T11:29:43.311Z,315.00
2022-12-17T11:30:43.309Z,303.75
2022-12-17T11:31:43.388Z,281.25
2022-12-17T11:32:43.309Z,264.38
2022-12-17T11:33:43.260Z,270.00
2022-12-17T11:34:43.247Z,264.38
2022-12-17T11:35:43.265Z,241.88
2022-12-17T11:36:43.247Z,230.62
2022-12-17T11:37:43.209Z,230.62
2022-12-17T11:38:43.219Z,247.50
2022-12-17T11:39:43.188Z,275.62
2022-12-17T11:40:43.192Z,286.88
2022-12-17T11:41:43.158Z,315.00
2022-12-17T11:42:43.148Z,348.75
2022-12-17T11:43:43.131Z,371.25
2022-12-17T11:45:53.349Z,427.50
2022-12-17T11:46:53.475Z,416.25
2022-12-17T11:47:57.546Z,427.50
2022-12-17T11:48:54.312Z,466.88
2022-12-17T11:49:53.280Z,478.12
2022-12-17T11:50:53.279Z,450.00
2022-12-17T11:51:53.284Z,399.38
2022-12-17T11:52:53.334Z,388.12
2022-12-17T11:53:53.235Z,399.38
2022-12-17T11:54:53.211Z,393.75
2022-12-17T11:55:53.238Z,388.12
2022-12-17T11:56:53.196Z,371.25
2022-12-17T11:57:53.180Z,348.75
2022-12-17T11:58:53.173Z,337.50
2022-12-17T11:59:56.137Z,309.38
2022-12-17T12:00:54.208Z,286.88
2022-12-17T12:01:53.219Z,270.00
2022-12-17T12:02:53.193Z,258.75
2022-12-17T12:03:53.179Z,236.25
2022-12-17T12:04:53.119Z,225.00
2022-12-17T12:05:56.650Z,225.00
2022-12-17T12:06:53.079Z,230.62
2022-12-17T12:07:53.083Z,230.62
2022-12-17T12:08:53.041Z,230.62
2022-12-17T12:09:53.043Z,236.25
2022-12-17T12:10:53.024Z,241.88
2022-12-17T12:11:53.000Z,253.12
2022-12-17T12:12:52.999Z,281.25
2022-12-17T12:13:52.981Z,309.38
2022-12-17T12:14:52.963Z,376.88
2022-12-17T12:15:53.086Z,466.88
2022-12-17T12:16:53.045Z,511.88
2022-12-17T12:17:52.945Z,517.50
2022-12-17T12:18:52.916Z,511.88
2022-12-17T12:19:52.901Z,500.62
2022-12-17T12:20:52.977Z,511.88
2022-12-17T12:21:52.881Z,540.00
2022-12-17T12:22:52.880Z,534.38
2022-12-17T12:23:52.860Z,506.25
2022-12-17T12:24:52.832Z,489.38
2022-12-17T12:25:52.839Z,461.25
2022-12-17T12:26:52.821Z,427.50
2022-12-17T12:27:52.807Z,410.62
2022-12-17T12:28:52.796Z,416.25
2022-12-17T12:29:52.786Z,421.88
2022-12-17T12:30:52.769Z,410.62
2022-12-17T12:31:52.839Z,376.88
2022-12-17T12:32:52.737Z,337.50
2022-12-17T12:33:52.725Z,326.25
2022-12-17T12:34:52.710Z,343.12
2022-12-17T12:35:52.715Z,326.25
2022-12-17T12:36:52.701Z,298.12
2022-12-17T12:37:52.673Z,309.38
2022-12-17T12:38:52.662Z,326.25
2022-12-17T12:39:52.651Z,315.00
2022-12-17T12:40:52.653Z,309.38
2022-12-17T12:41:52.629Z,309.38
2022-12-17T12:42:52.782Z,286.88
2022-12-17T12:43:52.607Z,264.38
2022-12-17T12:44:52.589Z,264.38
2022-12-17T12:45:52.609Z,270.00
2022-12-17T12:46:52.601Z,258.75
2022-12-17T12:47:52.545Z,241.88
2022-12-17T12:48:52.543Z,241.88
2022-12-17T12:49:52.517Z,264.38
2022-12-17T12:50:52.532Z,298.12
2022-12-17T12:51:52.501Z,320.62
2022-12-17T12:52:52.536Z,320.62
2022-12-17T12:53:52.653Z,354.38
2022-12-17T12:54:52.444Z,410.62
2022-12-17T12:55:52.443Z,416.25
2022-12-17T12:56:52.460Z,388.12
2022-12-17T12:57:52.434Z,371.25
2022-12-17T12:58:52.424Z,376.88
2022-12-17T12:59:52.395Z,382.50
2022-12-17T13:00:52.556Z,348.75
2022-12-17T13:01:52.571Z,331.88
2022-12-17T13:02:52.519Z,326.25
2022-12-17T13:03:52.333Z,309.38
2022-12-17T13:04:52.329Z,298.12
2022-12-17T13:05:52.327Z,292.50
2022-12-17T13:06:52.305Z,286.88
2022-12-17T13:07:52.305Z,286.88
2022-12-17T13:08:52.291Z,286.88
2022-12-17T13:09:52.264Z,281.25
2022-12-17T13:10:52.332Z,281.25
2022-12-17T13:11:52.247Z,298.12
2022-12-17T13:12:52.234Z,320.62
2022-12-17T13:13:52.229Z,331.88
2022-12-17T13:14:52.214Z,326.25
2022-12-17T13:15:52.225Z,315.00
2022-12-17T13:16:52.334Z,315.00
2022-12-17T13:17:52.169Z,326.25
2022-12-17T13:18:52.168Z,343.12
2022-12-17T13:19:52.142Z,326.25
2022-12-17T13:20:52.127Z,303.75
2022-12-17T13:21:52.115Z,292.50
2022-12-17T13:22:52.375Z,281.25
2022-12-17T13:23:52.094Z,286.88
2022-12-17T13:24:52.082Z,292.50
2022-12-17T13:25:52.066Z,292.50
2022-12-17T13:26:52.068Z,286.88